createdAt,value
2018-03-17T00:05:11.000Z,1001.628
2018-03-17T00:15:11.000Z,1001.692
2018-03-17T00:25:11.000Z,1001.576
2018-03-17T00:35:11.000Z,1001.484
2018-03-17T00:45:11.000Z,1001.383
2018-03-17T00:55:11.000Z,1001.591
2018-03-17T01:05:11.000Z,1001.547
2018-03-17T01:15:11.000Z,1001.572
2018-03-17T01:25:11.000Z,1001.554
2018-03-17T01:35:11.000Z,1001.582
2018-03-17T01:45:11.000Z,1001.551
2018-03-17T01:55:11.000Z,1001.682
2018-03-17T02:05:12.000Z,1001.615
2018-03-17T02:15:14.000Z,1001.537
2018-03-17T02:25:11.000Z,1001.596
2018-03-17T02:35:12.000Z,1001.742
2018-03-17T02:45:11.000Z,1001.577
2018-03-17T02:55:15.000Z,1001.515
2018-03-17T03:05:14.000Z,1001.501
2018-03-17T03:15:11.000Z,1001.61
2018-03-17T03:25:11.000Z,1001.522
2018-03-17T03:35:11.000Z,1001.503
2018-03-17T03:45:11.000Z,1001.501
2018-03-17T03:55:11.000Z,1001.458
2018-03-17T04:05:11.000Z,1001.467
2018-03-17T04:15:11.000Z,1001.46
2018-03-17T04:25:11.000Z,1001.431
2018-03-17T04:35:11.000Z,1001.468
2018-03-17T04:45:11.000Z,1001.572
2018-03-17T05:05:11.000Z,1001.549
2018-03-17T05:15:11.000Z,1001.583
2018-03-17T05:25:11.000Z,1001.667
2018-03-17T05:35:11.000Z,1001.578
2018-03-17T05:45:11.000Z,1001.44
2018-03-17T05:55:11.000Z,1001.519
2018-03-17T06:05:11.000Z,1001.434
2018-03-17T06:15:12.000Z,1001.534
2018-03-17T06:25:12.000Z,1001.425
2018-03-17T06:35:12.000Z,1001.59
2018-03-17T06:45:12.000Z,1001.568
2018-03-17T06:55:12.000Z,1001.444
2018-03-17T07:05:12.000Z,1001.624
2018-03-17T07:15:12.000Z,1001.679
2018-03-17T07:25:12.000Z,1002.087
2018-03-17T07:35:12.000Z,1001.826
2018-03-17T07:45:12.000Z,1001.779
2018-03-17T07:55:12.000Z,1001.826
2018-03-17T08:05:12.000Z,1001.846
2018-03-17T08:15:12.000Z,1001.816
2018-03-17T08:25:12.000Z,1001.811
2018-03-17T08:35:12.000Z,1001.755
2018-03-17T08:45:12.000Z,1001.887
2018-03-17T08:55:12.000Z,1001.709
2018-03-17T09:05:12.000Z,1001.702
2018-03-17T09:15:12.000Z,1001.762
2018-03-17T09:25:12.000Z,1001.755
2018-03-17T09:35:12.000Z,1001.702
2018-03-17T09:45:12.000Z,1001.708
2018-03-17T09:55:12.000Z,1001.701
2018-03-17T10:05:12.000Z,1001.797
2018-03-17T10:15:12.000Z,1001.655
2018-03-17T10:25:12.000Z,1001.667
2018-03-17T10:35:13.000Z,1001.605
2018-03-17T10:45:12.000Z,1001.557
2018-03-17T10:55:12.000Z,1001.66
2018-03-17T11:05:12.000Z,1001.626
2018-03-17T11:15:12.000Z,1001.656
2018-03-17T11:25:12.000Z,1001.599
2018-03-17T11:35:12.000Z,1001.599
2018-03-17T11:45:12.000Z,1001.432
2018-03-17T11:55:12.000Z,1001.287
2018-03-17T12:05:12.000Z,1001.307
2018-03-17T12:15:13.000Z,1001.326
2018-03-17T12:25:12.000Z,1001.092
2018-03-17T12:35:12.000Z,1001.046
2018-03-17T12:45:12.000Z,1000.961
2018-03-17T12:55:12.000Z,1000.895
2018-03-17T13:05:12.000Z,1001.018
2018-03-17T13:15:13.000Z,1000.725
2018-03-17T13:25:12.000Z,1000.678
2018-03-17T13:35:12.000Z,1000.485
2018-03-17T13:45:12.000Z,1000.491
2018-03-17T13:55:12.000Z,1000.613
2018-03-17T14:05:12.000Z,1000.652
2018-03-17T14:15:12.000Z,1000.748
2018-03-17T14:25:12.000Z,1000.714
2018-03-17T14:35:12.000Z,1000.683
2018-03-17T14:45:12.000Z,1000.645
2018-03-17T14:55:13.000Z,1000.591
2018-03-17T15:05:13.000Z,1000.575
2018-03-17T15:15:14.000Z,1000.63
2018-03-17T15:25:14.000Z,1000.672
2018-03-17T15:35:13.000Z,1000.518
2018-03-17T15:45:13.000Z,1000.739
2018-03-17T15:55:13.000Z,1000.607
2018-03-17T16:05:13.000Z,1000.672
2018-03-17T16:15:13.000Z,1000.769
2018-03-17T16:25:13.000Z,1000.823
2018-03-17T16:35:13.000Z,1000.911
2018-03-17T16:45:13.000Z,1000.943
2018-03-17T16:55:13.000Z,1000.908
2018-03-17T17:05:13.000Z,1001.049
2018-03-17T17:15:13.000Z,1001.151
2018-03-17T17:25:14.000Z,1001.26
2018-03-17T17:35:13.000Z,1001.461
2018-03-17T17:45:13.000Z,1001.41
2018-03-17T17:55:13.000Z,1001.538
2018-03-17T18:05:13.000Z,1001.606
2018-03-17T18:15:13.000Z,1001.646
2018-03-17T18:25:13.000Z,1001.674
2018-03-17T18:35:13.000Z,1001.653
2018-03-17T18:45:13.000Z,1001.7
2018-03-17T18:55:13.000Z,1001.729
2018-03-17T19:05:13.000Z,1001.818
2018-03-17T19:15:13.000Z,1001.753
2018-03-17T19:25:13.000Z,1001.791
2018-03-17T19:35:13.000Z,1001.907
2018-03-17T19:45:17.000Z,1001.932
2018-03-17T19:55:13.000Z,1001.997
2018-03-17T20:05:13.000Z,1001.937
2018-03-17T20:15:13.000Z,1002.015
2018-03-17T20:25:13.000Z,1001.992
2018-03-17T20:35:13.000Z,1002.039
2018-03-17T20:45:13.000Z,1002.11
2018-03-17T20:55:13.000Z,1002.157
2018-03-17T21:05:13.000Z,1002.272
2018-03-17T21:15:13.000Z,1002.185
2018-03-17T21:25:13.000Z,1002.28
2018-03-17T21:35:13.000Z,1002.262
2018-03-17T21:45:13.000Z,1002.265
2018-03-17T21:55:13.000Z,1002.321
2018-03-17T22:05:13.000Z,1002.272
2018-03-17T22:15:13.000Z,1002.287
2018-03-17T22:25:13.000Z,1002.343
2018-03-17T22:35:13.000Z,1002.356
2018-03-17T22:45:13.000Z,1002.338
2018-03-17T22:55:14.000Z,1002.3
2018-03-17T23:05:14.000Z,1002.341
2018-03-17T23:15:14.000Z,1002.42
2018-03-17T23:25:14.000Z,1002.379
2018-03-17T23:35:14.000Z,1002.347
2018-03-17T23:45:14.000Z,1002.284
2018-03-17T23:55:14.000Z,1002.454
